sensor_id;sensor_type;location;lat;lon;timestamp;pressure;altitude;pressure_sealevel;temperature;humidity
21623;BME280;10973;46.706;12.340;2022-09-12T00:01:06;87693.06;;;10.41;53.90
21623;BME280;10973;46.706;12.340;2022-09-12T00:03:34;87691.88;;;10.35;53.93
21623;BME280;10973;46.706;12.340;2022-09-12T00:06:08;87693.75;;;10.35;53.82
21623;BME280;10973;46.706;12.340;2022-09-12T00:08:36;87691.44;;;10.30;53.83
21623;BME280;10973;46.706;12.340;2022-09-12T00:11:06;87687.31;;;10.29;53.88
21623;BME280;10973;46.706;12.340;2022-09-12T00:13:35;87686.47;;;10.25;53.98
21623;BME280;10973;46.706;12.340;2022-09-12T00:16:21;87683.06;;;10.21;54.27
21623;BME280;10973;46.706;12.340;2022-09-12T00:18:49;87689.03;;;10.18;54.01
21623;BME280;10973;46.706;12.340;2022-09-12T00:21:18;87692.44;;;10.18;54.08
21623;BME280;10973;46.706;12.340;2022-09-12T00:23:46;87683.44;;;10.19;54.09
21623;BME280;10973;46.706;12.340;2022-09-12T00:26:14;87691.28;;;10.16;53.92
21623;BME280;10973;46.706;12.340;2022-09-12T00:28:43;87678.84;;;10.13;54.01
21623;BME280;10973;46.706;12.340;2022-09-12T00:31:14;87687.41;;;10.10;54.08
21623;BME280;10973;46.706;12.340;2022-09-12T00:33:42;87690.75;;;10.06;54.29
21623;BME280;10973;46.706;12.340;2022-09-12T00:36:13;87684.69;;;10.02;54.24
21623;BME280;10973;46.706;12.340;2022-09-12T00:38:42;87680.88;;;9.96;54.45
21623;BME280;10973;46.706;12.340;2022-09-12T00:43:46;87687.16;;;9.88;54.51
21623;BME280;10973;46.706;12.340;2022-09-12T00:49:14;87691.63;;;9.84;54.72
21623;BME280;10973;46.706;12.340;2022-09-12T00:51:47;87687.50;;;9.83;54.94
21623;BME280;10973;46.706;12.340;2022-09-12T00:54:21;87682.22;;;9.83;54.88
21623;BME280;10973;46.706;12.340;2022-09-12T00:56:53;87685.56;;;9.80;54.95
21623;BME280;10973;46.706;12.340;2022-09-12T00:59:29;87679.16;;;9.78;54.84
21623;BME280;10973;46.706;12.340;2022-09-12T01:01:57;87680.25;;;9.77;54.73
21623;BME280;10973;46.706;12.340;2022-09-12T01:04:26;87678.38;;;9.77;54.67
21623;BME280;10973;46.706;12.340;2022-09-12T01:06:56;87671.22;;;9.74;54.72
21623;BME280;10973;46.706;12.340;2022-09-12T01:09:25;87664.72;;;9.68;54.62
21623;BME280;10973;46.706;12.340;2022-09-12T01:11:53;87672.28;;;9.70;54.55
21623;BME280;10973;46.706;12.340;2022-09-12T01:14:21;87660.19;;;9.65;54.82
21623;BME280;10973;46.706;12.340;2022-09-12T01:16:50;87667.34;;;9.65;54.63
21623;BME280;10973;46.706;12.340;2022-09-12T01:29:11;87656.25;;;9.52;54.76
21623;BME280;10973;46.706;12.340;2022-09-12T01:31:05;87646.41;;;9.46;55.18
21623;BME280;10973;46.706;12.340;2022-09-12T01:39:23;87648.53;;;9.37;54.99
21623;BME280;10973;46.706;12.340;2022-09-12T01:44:44;87640.91;;;9.28;55.69
21623;BME280;10973;46.706;12.340;2022-09-12T01:47:32;87639.81;;;9.29;55.42
21623;BME280;10973;46.706;12.340;2022-09-12T01:52:56;87635.66;;;9.28;55.57
21623;BME280;10973;46.706;12.340;2022-09-12T01:58:15;87628.47;;;9.25;55.32
21623;BME280;10973;46.706;12.340;2022-09-12T02:01:32;87631.75;;;9.18;55.11
21623;BME280;10973;46.706;12.340;2022-09-12T02:04:06;87622.00;;;9.19;55.38
21623;BME280;10973;46.706;12.340;2022-09-12T02:09:42;87623.75;;;9.08;55.64
21623;BME280;10973;46.706;12.340;2022-09-12T02:12:15;87634.66;;;9.10;55.32
21623;BME280;10973;46.706;12.340;2022-09-12T02:14:50;87616.25;;;9.10;55.30
21623;BME280;10973;46.706;12.340;2022-09-12T02:17:22;87621.09;;;9.08;55.19
21623;BME280;10973;46.706;12.340;2022-09-12T02:20:13;87619.16;;;9.01;55.07
21623;BME280;10973;46.706;12.340;2022-09-12T02:23:05;87622.47;;;8.98;55.14
21623;BME280;10973;46.706;12.340;2022-09-12T02:25:38;87610.03;;;8.95;55.21
21623;BME280;10973;46.706;12.340;2022-09-12T02:28:14;87610.41;;;8.94;55.33
21623;BME280;10973;46.706;12.340;2022-09-12T02:30:58;87607.34;;;8.92;55.41
21623;BME280;10973;46.706;12.340;2022-09-12T02:39:05;87608.69;;;8.79;55.44
21623;BME280;10973;46.706;12.340;2022-09-12T02:41:33;87608.69;;;8.79;55.31
21623;BME280;10973;46.706;12.340;2022-09-12T02:44:00;87607.56;;;8.80;55.62
21623;BME280;10973;46.706;12.340;2022-09-12T02:46:38;87595.88;;;8.77;55.59
21623;BME280;10973;46.706;12.340;2022-09-12T02:49:07;87598.47;;;8.74;55.61
21623;BME280;10973;46.706;12.340;2022-09-12T02:51:36;87607.81;;;8.71;55.47
21623;BME280;10973;46.706;12.340;2022-09-12T02:54:05;87609.63;;;8.67;55.63
21623;BME280;10973;46.706;12.340;2022-09-12T02:56:33;87602.09;;;8.66;56.03
21623;BME280;10973;46.706;12.340;2022-09-12T02:59:05;87608.47;;;8.65;56.02
21623;BME280;10973;46.706;12.340;2022-09-12T03:07:45;87598.13;;;8.52;56.14
21623;BME280;10973;46.706;12.340;2022-09-12T03:10:31;87601.88;;;8.51;55.94
21623;BME280;10973;46.706;12.340;2022-09-12T03:16:26;87594.31;;;8.46;56.01
21623;BME280;10973;46.706;12.340;2022-09-12T03:24:21;87598.03;;;8.45;55.80
21623;BME280;10973;46.706;12.340;2022-09-12T03:26:55;87599.44;;;8.39;56.24
21623;BME280;10973;46.706;12.340;2022-09-12T03:29:26;87599.06;;;8.41;56.28
21623;BME280;10973;46.706;12.340;2022-09-12T03:31:56;87603.63;;;8.44;56.24
21623;BME280;10973;46.706;12.340;2022-09-12T03:34:26;87603.22;;;8.42;56.20
21623;BME280;10973;46.706;12.340;2022-09-12T03:36:54;87601.66;;;8.37;56.16
21623;BME280;10973;46.706;12.340;2022-09-12T03:39:23;87596.84;;;8.43;56.05
21623;BME280;10973;46.706;12.340;2022-09-12T03:41:51;87601.38;;;8.42;56.04
21623;BME280;10973;46.706;12.340;2022-09-12T03:44:19;87601.28;;;8.39;56.23
21623;BME280;10973;46.706;12.340;2022-09-12T03:46:46;87595.72;;;8.40;56.17
21623;BME280;10973;46.706;12.340;2022-09-12T03:49:14;87592.25;;;8.36;56.07
21623;BME280;10973;46.706;12.340;2022-09-12T03:51:42;87595.25;;;8.35;56.04
21623;BME280;10973;46.706;12.340;2022-09-12T03:54:10;87595.25;;;8.35;55.79
21623;BME280;10973;46.706;12.340;2022-09-12T03:56:37;87598.97;;;8.34;55.83
21623;BME280;10973;46.706;12.340;2022-09-12T03:59:05;87592.91;;;8.30;56.10
21623;BME280;10973;46.706;12.340;2022-09-12T04:01:33;87599.28;;;8.29;56.16
21623;BME280;10973;46.706;12.340;2022-09-12T04:04:01;87596.25;;;8.27;55.90
21623;BME280;10973;46.706;12.340;2022-09-12T04:06:29;87598.41;;;8.25;56.19
21623;BME280;10973;46.706;12.340;2022-09-12T04:08:57;87594.63;;;8.22;56.23
21623;BME280;10973;46.706;12.340;2022-09-12T04:11:25;87600.22;;;8.21;56.24
21623;BME280;10973;46.706;12.340;2022-09-12T04:13:56;87603.91;;;8.16;56.37
21623;BME280;10973;46.706;12.340;2022-09-12T04:16:40;87597.47;;;8.14;55.84
21623;BME280;10973;46.706;12.340;2022-09-12T04:19:14;87598.53;;;8.09;56.36
21623;BME280;10973;46.706;12.340;2022-09-12T04:21:48;87597.72;;;8.05;56.69
21623;BME280;10973;46.706;12.340;2022-09-12T04:24:28;87594.69;;;8.03;56.47
21623;BME280;10973;46.706;12.340;2022-09-12T04:26:59;87595.44;;;8.04;56.23
21623;BME280;10973;46.706;12.340;2022-09-12T04:29:36;87591.66;;;8.01;56.31
21623;BME280;10973;46.706;12.340;2022-09-12T04:32:05;87599.53;;;8.01;56.38
21623;BME280;10973;46.706;12.340;2022-09-12T04:34:34;87596.09;;;7.97;56.06
21623;BME280;10973;46.706;12.340;2022-09-12T04:37:03;87594.97;;;7.98;56.58
21623;BME280;10973;46.706;12.340;2022-09-12T04:39:31;87600.97;;;7.99;56.45
21623;BME280;10973;46.706;12.340;2022-09-12T04:41:59;87593.78;;;7.96;56.28
21623;BME280;10973;46.706;12.340;2022-09-12T04:44:26;87594.50;;;7.93;56.22
21623;BME280;10973;46.706;12.340;2022-09-12T04:46:57;87596.38;;;7.92;56.33
21623;BME280;10973;46.706;12.340;2022-09-12T04:49:34;87596.69;;;7.90;56.51
21623;BME280;10973;46.706;12.340;2022-09-12T04:52:02;87591.81;;;7.89;56.72
21623;BME280;10973;46.706;12.340;2022-09-12T04:54:30;87594.03;;;7.87;56.74
21623;BME280;10973;46.706;12.340;2022-09-12T04:56:57;87603.44;;;7.88;56.70
21623;BME280;10973;46.706;12.340;2022-09-12T04:59:25;87602.31;;;7.89;56.80
21623;BME280;10973;46.706;12.340;2022-09-12T05:01:53;87591.03;;;7.88;56.77
21623;BME280;10973;46.706;12.340;2022-09-12T05:04:20;87599.31;;;7.90;56.92
21623;BME280;10973;46.706;12.340;2022-09-12T05:06:48;87602.66;;;7.87;57.28
21623;BME280;10973;46.706;12.340;2022-09-12T05:09:16;87599.00;;;7.92;57.22
21623;BME280;10973;46.706;12.340;2022-09-12T05:11:44;87604.66;;;7.94;57.10
21623;BME280;10973;46.706;12.340;2022-09-12T05:14:32;87606.16;;;7.95;57.32
21623;BME280;10973;46.706;12.340;2022-09-12T05:17:01;87610.66;;;7.95;57.23
21623;BME280;10973;46.706;12.340;2022-09-12T05:19:29;87618.19;;;7.96;57.13
21623;BME280;10973;46.706;12.340;2022-09-12T05:21:57;87616.38;;;8.00;57.48
21623;BME280;10973;46.706;12.340;2022-09-12T05:24:25;87616.72;;;7.99;57.44
21623;BME280;10973;46.706;12.340;2022-09-12T05:26:53;87610.31;;;7.96;57.30
21623;BME280;10973;46.706;12.340;2022-09-12T05:29:21;87611.75;;;7.93;57.42
21623;BME280;10973;46.706;12.340;2022-09-12T05:31:48;87617.00;;;7.93;57.35
21623;BME280;10973;46.706;12.340;2022-09-12T05:34:16;87617.41;;;7.96;57.33
21623;BME280;10973;46.706;12.340;2022-09-12T05:36:44;87619.25;;;7.95;57.20
21623;BME280;10973;46.706;12.340;2022-09-12T05:39:11;87616.22;;;7.93;57.26
21623;BME280;10973;46.706;12.340;2022-09-12T05:41:39;87623.38;;;7.93;57.26
21623;BME280;10973;46.706;12.340;2022-09-12T05:44:11;87631.16;;;7.89;57.06
21623;BME280;10973;46.706;12.340;2022-09-12T05:46:41;87628.91;;;7.87;57.06
21623;BME280;10973;46.706;12.340;2022-09-12T05:49:11;87626.19;;;7.84;57.35
21623;BME280;10973;46.706;12.340;2022-09-12T05:51:42;87631.78;;;7.82;57.44
21623;BME280;10973;46.706;12.340;2022-09-12T05:54:12;87625.47;;;7.83;57.34
21623;BME280;10973;46.706;12.340;2022-09-12T05:56:42;87631.44;;;7.84;57.60
21623;BME280;10973;46.706;12.340;2022-09-12T05:59:15;87615.66;;;7.80;57.47
21623;BME280;10973;46.706;12.340;2022-09-12T06:01:44;87628.81;;;7.84;57.44
21623;BME280;10973;46.706;12.340;2022-09-12T06:04:12;87624.69;;;7.83;57.73
21623;BME280;10973;46.706;12.340;2022-09-12T06:06:41;87619.91;;;7.88;57.71
21623;BME280;10973;46.706;12.340;2022-09-12T06:09:10;87625.63;;;7.94;57.72
21623;BME280;10973;46.706;12.340;2022-09-12T06:11:39;87624.25;;;8.00;57.88
21623;BME280;10973;46.706;12.340;2022-09-12T06:14:08;87625.06;;;8.04;57.97
21623;BME280;10973;46.706;12.340;2022-09-12T06:16:37;87622.22;;;8.13;57.62
21623;BME280;10973;46.706;12.340;2022-09-12T06:19:10;87621.22;;;8.21;57.76
21623;BME280;10973;46.706;12.340;2022-09-12T06:21:38;87614.53;;;8.23;57.97
21623;BME280;10973;46.706;12.340;2022-09-12T06:24:06;87607.56;;;8.31;57.82
21623;BME280;10973;46.706;12.340;2022-09-12T06:26:34;87610.75;;;8.43;58.03
21623;BME280;10973;46.706;12.340;2022-09-12T06:29:02;87610.94;;;8.54;58.37
21623;BME280;10973;46.706;12.340;2022-09-12T06:31:32;87617.84;;;8.66;58.43
21623;BME280;10973;46.706;12.340;2022-09-12T06:34:02;87613.47;;;8.73;58.38
21623;BME280;10973;46.706;12.340;2022-09-12T06:36:37;87606.84;;;8.83;58.42
21623;BME280;10973;46.706;12.340;2022-09-12T06:39:08;87606.22;;;8.93;58.54
21623;BME280;10973;46.706;12.340;2022-09-12T06:41:36;87601.84;;;9.00;58.38
21623;BME280;10973;46.706;12.340;2022-09-12T06:44:15;87604.28;;;9.12;58.32
21623;BME280;10973;46.706;12.340;2022-09-12T06:46:43;87602.91;;;9.22;58.41
21623;BME280;10973;46.706;12.340;2022-09-12T06:49:11;87598.88;;;9.31;58.11
21623;BME280;10973;46.706;12.340;2022-09-12T06:51:39;87596.72;;;9.41;58.21
21623;BME280;10973;46.706;12.340;2022-09-12T06:54:07;87597.28;;;9.53;58.41
21623;BME280;10973;46.706;12.340;2022-09-12T06:56:35;87602.31;;;9.65;58.50
21623;BME280;10973;46.706;12.340;2022-09-12T06:59:02;87596.78;;;9.77;58.55
21623;BME280;10973;46.706;12.340;2022-09-12T07:01:31;87602.94;;;9.88;58.33
21623;BME280;10973;46.706;12.340;2022-09-12T07:04:00;87596.66;;;10.00;58.20
21623;BME280;10973;46.706;12.340;2022-09-12T07:06:37;87598.66;;;10.10;57.99
21623;BME280;10973;46.706;12.340;2022-09-12T07:09:08;87592.72;;;10.17;57.99
21623;BME280;10973;46.706;12.340;2022-09-12T07:11:38;87594.34;;;10.28;57.45
21623;BME280;10973;46.706;12.340;2022-09-12T07:14:07;87596.28;;;10.35;56.94
21623;BME280;10973;46.706;12.340;2022-09-12T07:16:36;87598.28;;;10.45;56.72
21623;BME280;10973;46.706;12.340;2022-09-12T07:19:05;87591.56;;;10.54;56.25
21623;BME280;10973;46.706;12.340;2022-09-12T07:21:34;87593.16;;;10.62;55.93
21623;BME280;10973;46.706;12.340;2022-09-12T07:24:02;87586.44;;;10.72;56.16
21623;BME280;10973;46.706;12.340;2022-09-12T07:26:29;87588.75;;;10.81;56.01
21623;BME280;10973;46.706;12.340;2022-09-12T07:28:58;87588.81;;;10.88;55.54
21623;BME280;10973;46.706;12.340;2022-09-12T07:31:45;87588.50;;;10.96;55.11
21623;BME280;10973;46.706;12.340;2022-09-12T07:34:13;87584.03;;;11.04;54.84
21623;BME280;10973;46.706;12.340;2022-09-12T07:36:41;87582.94;;;11.12;54.53
21623;BME280;10973;46.706;12.340;2022-09-12T07:39:08;87587.50;;;11.18;54.40
21623;BME280;10973;46.706;12.340;2022-09-12T07:41:36;87581.16;;;11.26;53.90
21623;BME280;10973;46.706;12.340;2022-09-12T07:44:04;87585.72;;;11.33;53.48
21623;BME280;10973;46.706;12.340;2022-09-12T07:46:32;87585.00;;;11.39;53.53
21623;BME280;10973;46.706;12.340;2022-09-12T07:49:00;87582.00;;;11.44;53.20
21623;BME280;10973;46.706;12.340;2022-09-12T07:51:29;87572.63;;;11.54;52.64
21623;BME280;10973;46.706;12.340;2022-09-12T07:53:57;87577.97;;;11.65;53.06
21623;BME280;10973;46.706;12.340;2022-09-12T07:56:25;87569.72;;;11.73;53.06
21623;BME280;10973;46.706;12.340;2022-09-12T07:58:57;87563.69;;;11.80;52.63
21623;BME280;10973;46.706;12.340;2022-09-12T08:01:25;87566.00;;;11.85;52.63
21623;BME280;10973;46.706;12.340;2022-09-12T08:03:55;87563.75;;;11.94;53.10
21623;BME280;10973;46.706;12.340;2022-09-12T08:06:24;87560.75;;;12.02;52.72
21623;BME280;10973;46.706;12.340;2022-09-12T08:08:53;87564.94;;;12.10;52.21
21623;BME280;10973;46.706;12.340;2022-09-12T08:11:23;87561.56;;;12.17;51.72
21623;BME280;10973;46.706;12.340;2022-09-12T08:13:52;87556.28;;;12.24;51.43
21623;BME280;10973;46.706;12.340;2022-09-12T08:16:24;87562.69;;;12.34;51.30
21623;BME280;10973;46.706;12.340;2022-09-12T08:18:52;87553.66;;;12.42;52.26
21623;BME280;10973;46.706;12.340;2022-09-12T08:21:22;87552.91;;;12.48;51.77
21623;BME280;10973;46.706;12.340;2022-09-12T08:23:55;87544.63;;;12.53;50.54
21623;BME280;10973;46.706;12.340;2022-09-12T08:26:23;87553.69;;;12.66;50.34
21623;BME280;10973;46.706;12.340;2022-09-12T08:28:51;87552.19;;;12.76;50.66
21623;BME280;10973;46.706;12.340;2022-09-12T08:31:20;87553.69;;;12.84;51.24
21623;BME280;10973;46.706;12.340;2022-09-12T08:33:49;87548.78;;;12.97;50.53
21623;BME280;10973;46.706;12.340;2022-09-12T08:36:21;87545.00;;;13.01;49.67
21623;BME280;10973;46.706;12.340;2022-09-12T08:38:53;87544.63;;;13.10;48.85
21623;BME280;10973;46.706;12.340;2022-09-12T08:41:42;87545.00;;;13.19;48.84
21623;BME280;10973;46.706;12.340;2022-09-12T08:47:08;87537.75;;;13.33;49.32
21623;BME280;10973;46.706;12.340;2022-09-12T08:49:44;87537.75;;;13.44;48.75
21623;BME280;10973;46.706;12.340;2022-09-12T08:52:21;87537.34;;;13.52;48.83
21623;BME280;10973;46.706;12.340;2022-09-12T08:54:50;87533.56;;;13.61;49.02
21623;BME280;10973;46.706;12.340;2022-09-12T08:57:17;87531.63;;;13.72;48.78
21623;BME280;10973;46.706;12.340;2022-09-12T08:59:45;87532.69;;;13.85;48.35
21623;BME280;10973;46.706;12.340;2022-09-12T09:08:19;87523.50;;;14.07;47.51
21623;BME280;10973;46.706;12.340;2022-09-12T09:16:51;87518.09;;;14.32;48.17
21623;BME280;10973;46.706;12.340;2022-09-12T09:19:54;87521.03;;;14.48;47.43
21623;BME280;10973;46.706;12.340;2022-09-12T09:22:40;87516.41;;;14.59;47.01
21623;BME280;10973;46.706;12.340;2022-09-12T09:25:22;87513.66;;;14.73;47.26
21623;BME280;10973;46.706;12.340;2022-09-12T09:28:08;87513.97;;;14.82;45.54
21623;BME280;10973;46.706;12.340;2022-09-12T09:30:41;87502.53;;;14.92;45.70
21623;BME280;10973;46.706;12.340;2022-09-12T09:33:20;87505.84;;;14.99;45.14
21623;BME280;10973;46.706;12.340;2022-09-12T09:36:21;87499.34;;;15.08;43.46
21623;BME280;10973;46.706;12.340;2022-09-12T09:44:36;87502.53;;;15.29;42.79
21623;BME280;10973;46.706;12.340;2022-09-12T09:47:04;87491.47;;;15.38;42.84
21623;BME280;10973;46.706;12.340;2022-09-12T09:49:33;87489.88;;;15.47;41.79
21623;BME280;10973;46.706;12.340;2022-09-12T09:52:01;87494.75;;;15.56;40.17
21623;BME280;10973;46.706;12.340;2022-09-12T09:54:39;87488.13;;;15.67;41.70
21623;BME280;10973;46.706;12.340;2022-09-12T10:05:58;87477.34;;;16.12;38.86
21623;BME280;10973;46.706;12.340;2022-09-12T10:08:35;87483.28;;;16.23;39.10
21623;BME280;10973;46.706;12.340;2022-09-12T10:11:25;87475.47;;;16.39;39.54
21623;BME280;10973;46.706;12.340;2022-09-12T10:13:57;87473.03;;;16.52;38.75
21623;BME280;10973;46.706;12.340;2022-09-12T10:16:31;87475.59;;;16.59;37.95
21623;BME280;10973;46.706;12.340;2022-09-12T10:19:01;87473.47;;;16.73;38.12
21623;BME280;10973;46.706;12.340;2022-09-12T10:21:41;87461.91;;;17.06;37.93
21623;BME280;10973;46.706;12.340;2022-09-12T10:24:34;87456.19;;;17.74;36.64
21623;BME280;10973;46.706;12.340;2022-09-12T10:27:43;87459.97;;;19.32;33.88
21623;BME280;10973;46.706;12.340;2022-09-12T10:30:18;87454.16;;;20.90;31.47
21623;BME280;10973;46.706;12.340;2022-09-12T10:32:48;87449.84;;;22.54;28.62
21623;BME280;10973;46.706;12.340;2022-09-12T10:38:00;87447.59;;;25.50;23.36
21623;BME280;10973;46.706;12.340;2022-09-12T10:40:33;87439.25;;;26.57;23.17
21623;BME280;10973;46.706;12.340;2022-09-12T10:43:16;87440.84;;;27.66;21.80
21623;BME280;10973;46.706;12.340;2022-09-12T10:45:43;87444.88;;;28.46;20.78
21623;BME280;10973;46.706;12.340;2022-09-12T10:48:30;87425.59;;;29.35;19.84
21623;BME280;10973;46.706;12.340;2022-09-12T10:50:59;87436.84;;;29.85;18.59
21623;BME280;10973;46.706;12.340;2022-09-12T10:53:31;87436.38;;;30.23;18.74
21623;BME280;10973;46.706;12.340;2022-09-12T10:56:12;87435.38;;;30.74;18.72
21623;BME280;10973;46.706;12.340;2022-09-12T10:59:03;87432.06;;;31.18;18.11
21623;BME280;10973;46.706;12.340;2022-09-12T11:01:41;87425.44;;;31.52;17.68
21623;BME280;10973;46.706;12.340;2022-09-12T11:20:25;87416.56;;;32.76;16.75
21623;BME280;10973;46.706;12.340;2022-09-12T11:39:42;87417.91;;;32.36;16.06
21623;BME280;10973;46.706;12.340;2022-09-12T11:42:16;87414.91;;;32.45;16.29
21623;BME280;10973;46.706;12.340;2022-09-12T11:44:58;87406.06;;;31.95;16.29
21623;BME280;10973;46.706;12.340;2022-09-12T11:47:29;87400.38;;;32.09;16.23
21623;BME280;10973;46.706;12.340;2022-09-12T11:50:03;87403.38;;;31.89;16.55
21623;BME280;10973;46.706;12.340;2022-09-12T11:52:37;87395.94;;;31.56;16.94
21623;BME280;10973;46.706;12.340;2022-09-12T11:55:10;87393.44;;;31.36;16.73
21623;BME280;10973;46.706;12.340;2022-09-12T12:01:25;87397.00;;;30.61;15.86
21623;BME280;10973;46.706;12.340;2022-09-12T12:03:35;87387.28;;;29.96;15.72
21623;BME280;10973;46.706;12.340;2022-09-12T12:06:18;87385.38;;;29.71;16.90
21623;BME280;10973;46.706;12.340;2022-09-12T12:08:48;87391.69;;;29.56;17.32
21623;BME280;10973;46.706;12.340;2022-09-12T12:11:44;87383.09;;;29.27;17.71
21623;BME280;10973;46.706;12.340;2022-09-12T12:14:17;87383.38;;;29.03;18.03
21623;BME280;10973;46.706;12.340;2022-09-12T12:16:46;87380.38;;;28.75;18.25
21623;BME280;10973;46.706;12.340;2022-09-12T12:21:43;87373.19;;;28.26;18.51
21623;BME280;10973;46.706;12.340;2022-09-12T12:24:22;87374.63;;;28.02;18.72
21623;BME280;10973;46.706;12.340;2022-09-12T12:27:11;87368.69;;;27.83;18.06
21623;BME280;10973;46.706;12.340;2022-09-12T12:29:49;87370.19;;;27.64;19.52
21623;BME280;10973;46.706;12.340;2022-09-12T12:32:18;87367.97;;;27.48;18.73
21623;BME280;10973;46.706;12.340;2022-09-12T12:34:47;87368.66;;;27.43;19.08
21623;BME280;10973;46.706;12.340;2022-09-12T12:48:10;87347.53;;;26.83;19.00
21623;BME280;10973;46.706;12.340;2022-09-12T12:50:41;87345.19;;;26.91;22.91
21623;BME280;10973;46.706;12.340;2022-09-12T12:53:21;87345.41;;;26.87;19.78
21623;BME280;10973;46.706;12.340;2022-09-12T12:55:52;87345.19;;;26.91;19.00
21623;BME280;10973;46.706;12.340;2022-09-12T12:58:38;87337.09;;;26.91;19.08
21623;BME280;10973;46.706;12.340;2022-09-12T13:01:18;87336.16;;;26.94;19.65
21623;BME280;10973;46.706;12.340;2022-09-12T13:04:02;87333.47;;;26.94;18.85
21623;BME280;10973;46.706;12.340;2022-09-12T13:09:08;87334.75;;;26.98;18.85
21623;BME280;10973;46.706;12.340;2022-09-12T13:11:43;87337.47;;;26.98;18.88
21623;BME280;10973;46.706;12.340;2022-09-12T13:14:48;87327.69;;;26.86;18.00
21623;BME280;10973;46.706;12.340;2022-09-12T13:17:45;87326.75;;;26.89;18.50
21623;BME280;10973;46.706;12.340;2022-09-12T13:20:18;87324.88;;;26.95;19.60
21623;BME280;10973;46.706;12.340;2022-09-12T13:22:56;87330.81;;;26.99;18.60
21623;BME280;10973;46.706;12.340;2022-09-12T13:25:34;87323.03;;;26.86;18.30
21623;BME280;10973;46.706;12.340;2022-09-12T13:30:42;87317.03;;;26.97;20.50
21623;BME280;10973;46.706;12.340;2022-09-12T13:33:31;87321.69;;;26.97;20.82
21623;BME280;10973;46.706;12.340;2022-09-12T13:39:28;87311.72;;;26.88;20.44
21623;BME280;10973;46.706;12.340;2022-09-12T13:44:43;87304.34;;;27.03;19.56
21623;BME280;10973;46.706;12.340;2022-09-12T13:47:15;87298.34;;;27.14;19.84
21623;BME280;10973;46.706;12.340;2022-09-12T13:49:45;87295.91;;;27.16;19.73
21623;BME280;10973;46.706;12.340;2022-09-12T13:52:22;87298.41;;;27.19;18.87
21623;BME280;10973;46.706;12.340;2022-09-12T13:54:53;87294.88;;;27.13;19.59
21623;BME280;10973;46.706;12.340;2022-09-12T13:57:36;87286.16;;;27.24;18.70
21623;BME280;10973;46.706;12.340;2022-09-12T14:00:19;87283.31;;;27.33;18.87
21623;BME280;10973;46.706;12.340;2022-09-12T14:02:47;87276.81;;;27.39;19.16
21623;BME280;10973;46.706;12.340;2022-09-12T14:05:23;87280.34;;;27.45;18.53
21623;BME280;10973;46.706;12.340;2022-09-12T14:07:55;87282.50;;;27.41;18.70
21623;BME280;10973;46.706;12.340;2022-09-12T14:12:54;87283.06;;;27.31;18.98
21623;BME280;10973;46.706;12.340;2022-09-12T14:15:25;87283.31;;;27.33;18.84
21623;BME280;10973;46.706;12.340;2022-09-12T14:17:56;87284.09;;;27.33;18.66
21623;BME280;10973;46.706;12.340;2022-09-12T14:20:24;87282.03;;;27.28;19.03
21623;BME280;10973;46.706;12.340;2022-09-12T14:22:52;87286.50;;;27.31;19.46
21623;BME280;10973;46.706;12.340;2022-09-12T14:25:22;87286.72;;;27.28;19.94
21623;BME280;10973;46.706;12.340;2022-09-12T14:27:52;87284.03;;;27.28;19.46
21623;BME280;10973;46.706;12.340;2022-09-12T14:30:24;87283.44;;;27.24;19.86
21623;BME280;10973;46.706;12.340;2022-09-12T14:33:17;87281.31;;;27.28;19.63
21623;BME280;10973;46.706;12.340;2022-09-12T14:35:52;87272.84;;;27.20;18.54
21623;BME280;10973;46.706;12.340;2022-09-12T14:38:43;87274.03;;;27.19;19.85
21623;BME280;10973;46.706;12.340;2022-09-12T14:41:19;87271.63;;;27.21;20.39
21623;BME280;10973;46.706;12.340;2022-09-12T14:43:53;87276.97;;;27.16;18.92
21623;BME280;10973;46.706;12.340;2022-09-12T14:46:31;87271.00;;;27.12;19.94
21623;BME280;10973;46.706;12.340;2022-09-12T14:49:13;87272.59;;;27.04;19.79
21623;BME280;10973;46.706;12.340;2022-09-12T14:51:53;87279.78;;;27.07;19.78
21623;BME280;10973;46.706;12.340;2022-09-12T14:56:58;87273.91;;;27.08;19.90
21623;BME280;10973;46.706;12.340;2022-09-12T15:04:43;87275.16;;;26.93;21.16
21623;BME280;10973;46.706;12.340;2022-09-12T15:09:45;87264.03;;;27.05;20.48
21623;BME280;10973;46.706;12.340;2022-09-12T15:12:13;87270.47;;;27.08;20.93
21623;BME280;10973;46.706;12.340;2022-09-12T15:14:41;87264.84;;;27.11;21.00
21623;BME280;10973;46.706;12.340;2022-09-12T15:17:08;87264.44;;;26.98;20.65
21623;BME280;10973;46.706;12.340;2022-09-12T15:19:36;87265.28;;;26.90;20.83
21623;BME280;10973;46.706;12.340;2022-09-12T15:22:03;87268.00;;;26.90;21.90
21623;BME280;10973;46.706;12.340;2022-09-12T15:24:31;87261.25;;;27.00;23.63
21623;BME280;10973;46.706;12.340;2022-09-12T15:26:58;87268.88;;;27.01;24.21
21623;BME280;10973;46.706;12.340;2022-09-12T15:29:26;87266.81;;;27.11;24.35
21623;BME280;10973;46.706;12.340;2022-09-12T15:31:53;87265.59;;;27.12;24.52
21623;BME280;10973;46.706;12.340;2022-09-12T15:34:21;87267.56;;;27.11;25.12
21623;BME280;10973;46.706;12.340;2022-09-12T15:36:49;87267.44;;;27.20;24.60
21623;BME280;10973;46.706;12.340;2022-09-12T15:39:16;87264.63;;;27.15;23.85
21623;BME280;10973;46.706;12.340;2022-09-12T15:41:44;87274.78;;;27.00;26.22
21623;BME280;10973;46.706;12.340;2022-09-12T15:44:13;87278.84;;;26.75;26.37
21623;BME280;10973;46.706;12.340;2022-09-12T15:46:41;87279.00;;;26.42;27.55
21623;BME280;10973;46.706;12.340;2022-09-12T15:49:09;87272.22;;;26.17;27.84
21623;BME280;10973;46.706;12.340;2022-09-12T15:51:37;87284.63;;;25.86;28.52
21623;BME280;10973;46.706;12.340;2022-09-12T15:54:04;87284.28;;;25.55;27.44
21623;BME280;10973;46.706;12.340;2022-09-12T15:56:32;87289.22;;;25.32;27.30
21623;BME280;10973;46.706;12.340;2022-09-12T15:59:00;87289.41;;;25.05;29.05
21623;BME280;10973;46.706;12.340;2022-09-12T16:01:28;87291.94;;;24.76;29.48